sensor_id;sensor_type;location;lat;lon;timestamp;pressure;altitude;pressure_sealevel;temperature;humidity
75359;BME280;64046;51.978;5.934;2023-12-22T00:00:46;100011.81;;;11.26;82.84
75359;BME280;64046;51.978;5.934;2023-12-22T00:03:16;100018.84;;;11.25;82.94
75359;BME280;64046;51.978;5.934;2023-12-22T00:05:47;100019.16;;;11.50;82.63
75359;BME280;64046;51.978;5.934;2023-12-22T00:08:17;100033.09;;;11.36;82.88
75359;BME280;64046;51.978;5.934;2023-12-22T00:10:46;100021.69;;;11.37;83.16
75359;BME280;64046;51.978;5.934;2023-12-22T00:13:15;100024.78;;;11.43;82.98
75359;BME280;64046;51.978;5.934;2023-12-22T00:15:44;100024.69;;;11.45;83.11
75359;BME280;64046;51.978;5.934;2023-12-22T00:18:14;100041.25;;;11.46;83.22
75359;BME280;64046;51.978;5.934;2023-12-22T00:20:43;100038.44;;;11.49;83.30
75359;BME280;64046;51.978;5.934;2023-12-22T00:23:15;100031.16;;;11.68;83.18
75359;BME280;64046;51.978;5.934;2023-12-22T00:25:44;100046.06;;;11.53;83.76
75359;BME280;64046;51.978;5.934;2023-12-22T00:28:13;100063.66;;;11.51;84.32
75359;BME280;64046;51.978;5.934;2023-12-22T00:30:43;100073.13;;;11.54;84.81
75359;BME280;64046;51.978;5.934;2023-12-22T00:33:12;100072.38;;;11.52;85.06
75359;BME280;64046;51.978;5.934;2023-12-22T00:35:42;100087.16;;;11.38;85.48
75359;BME280;64046;51.978;5.934;2023-12-22T00:38:11;100094.34;;;11.20;86.24
75359;BME280;64046;51.978;5.934;2023-12-22T00:40:43;100076.06;;;11.19;87.06
75359;BME280;64046;51.978;5.934;2023-12-22T00:43:12;100072.72;;;10.86;88.39
75359;BME280;64046;51.978;5.934;2023-12-22T00:45:42;100089.72;;;10.79;88.97
75359;BME280;64046;51.978;5.934;2023-12-22T00:48:11;100071.69;;;10.73;88.37
75359;BME280;64046;51.978;5.934;2023-12-22T00:50:40;100076.13;;;10.72;87.99
75359;BME280;64046;51.978;5.934;2023-12-22T00:53:09;100092.00;;;10.69;87.79
75359;BME280;64046;51.978;5.934;2023-12-22T00:55:39;100094.72;;;10.68;87.69
75359;BME280;64046;51.978;5.934;2023-12-22T00:58:10;100087.00;;;10.81;87.52
75359;BME280;64046;51.978;5.934;2023-12-22T01:00:40;100101.16;;;10.62;88.22
75359;BME280;64046;51.978;5.934;2023-12-22T01:03:09;100106.13;;;10.67;88.30
75359;BME280;64046;51.978;5.934;2023-12-22T01:05:39;100110.03;;;10.60;88.36
75359;BME280;64046;51.978;5.934;2023-12-22T01:08:08;100107.41;;;10.60;88.65
75359;BME280;64046;51.978;5.934;2023-12-22T01:10:39;100089.03;;;10.76;88.08
75359;BME280;64046;51.978;5.934;2023-12-22T01:13:11;100079.31;;;10.78;87.90
75359;BME280;64046;51.978;5.934;2023-12-22T01:15:40;100099.44;;;10.61;88.35
75359;BME280;64046;51.978;5.934;2023-12-22T01:18:10;100100.47;;;10.59;87.75
75359;BME280;64046;51.978;5.934;2023-12-22T01:20:39;100085.88;;;10.54;87.49
75359;BME280;64046;51.978;5.934;2023-12-22T01:23:09;100088.91;;;10.47;87.37
75359;BME280;64046;51.978;5.934;2023-12-22T01:25:38;100098.47;;;10.48;87.37
75359;BME280;64046;51.978;5.934;2023-12-22T01:28:07;100087.72;;;10.52;87.09
75359;BME280;64046;51.978;5.934;2023-12-22T01:30:39;100102.50;;;10.69;86.83
75359;BME280;64046;51.978;5.934;2023-12-22T01:33:09;100103.34;;;10.54;86.28
75359;BME280;64046;51.978;5.934;2023-12-22T01:35:38;100111.47;;;10.49;86.60
75359;BME280;64046;51.978;5.934;2023-12-22T01:38:08;100114.00;;;10.51;86.57
75359;BME280;64046;51.978;5.934;2023-12-22T01:40:37;100122.78;;;10.50;86.54
75359;BME280;64046;51.978;5.934;2023-12-22T01:43:07;100140.28;;;10.49;86.75
75359;BME280;64046;51.978;5.934;2023-12-22T01:45:39;100137.56;;;10.51;86.81
75359;BME280;64046;51.978;5.934;2023-12-22T01:48:10;100134.53;;;10.59;86.97
75359;BME280;64046;51.978;5.934;2023-12-22T01:50:39;100132.59;;;10.62;86.99
75359;BME280;64046;51.978;5.934;2023-12-22T01:53:10;100121.94;;;10.65;86.93
75359;BME280;64046;51.978;5.934;2023-12-22T01:55:40;100117.69;;;10.63;87.14
75359;BME280;64046;51.978;5.934;2023-12-22T01:58:12;100129.72;;;10.67;87.24
75359;BME280;64046;51.978;5.934;2023-12-22T02:03:21;100126.06;;;10.85;87.01
75359;BME280;64046;51.978;5.934;2023-12-22T02:05:51;100142.22;;;10.78;87.57
75359;BME280;64046;51.978;5.934;2023-12-22T02:08:22;100134.19;;;10.81;87.82
75359;BME280;64046;51.978;5.934;2023-12-22T02:10:53;100146.03;;;10.72;88.13
75359;BME280;64046;51.978;5.934;2023-12-22T02:13:24;100138.00;;;10.75;88.37
75359;BME280;64046;51.978;5.934;2023-12-22T02:16:01;100149.38;;;10.90;87.98
75359;BME280;64046;51.978;5.934;2023-12-22T02:18:41;100155.47;;;10.90;88.10
75359;BME280;64046;51.978;5.934;2023-12-22T02:21:18;100151.75;;;10.95;87.99
75359;BME280;64046;51.978;5.934;2023-12-22T02:23:51;100152.69;;;10.94;88.41
75359;BME280;64046;51.978;5.934;2023-12-22T02:26:27;100141.19;;;10.96;88.30
75359;BME280;64046;51.978;5.934;2023-12-22T02:29:00;100139.56;;;10.94;88.26
75359;BME280;64046;51.978;5.934;2023-12-22T02:31:37;100119.94;;;11.01;88.45
75359;BME280;64046;51.978;5.934;2023-12-22T02:34:14;100115.25;;;11.06;88.31
75359;BME280;64046;51.978;5.934;2023-12-22T02:36:47;100127.47;;;10.91;88.50
75359;BME280;64046;51.978;5.934;2023-12-22T02:39:23;100113.50;;;11.06;88.33
75359;BME280;64046;51.978;5.934;2023-12-22T02:41:53;100109.97;;;10.91;88.76
75359;BME280;64046;51.978;5.934;2023-12-22T02:44:22;100113.19;;;10.97;88.62
75359;BME280;64046;51.978;5.934;2023-12-22T02:46:52;100101.97;;;10.95;88.99
75359;BME280;64046;51.978;5.934;2023-12-22T02:49:21;100113.19;;;10.97;89.24
75359;BME280;64046;51.978;5.934;2023-12-22T02:51:55;100087.56;;;11.02;89.61
75359;BME280;64046;51.978;5.934;2023-12-22T02:54:30;100076.94;;;11.19;89.14
75359;BME280;64046;51.978;5.934;2023-12-22T02:57:00;100061.81;;;11.08;89.50
75359;BME280;64046;51.978;5.934;2023-12-22T02:59:29;100047.69;;;11.11;89.56
75359;BME280;64046;51.978;5.934;2023-12-22T03:01:58;100053.84;;;11.10;89.79
75359;BME280;64046;51.978;5.934;2023-12-22T03:04:32;100059.44;;;11.34;89.09
75359;BME280;64046;51.978;5.934;2023-12-22T03:07:05;100050.78;;;11.18;89.78
75359;BME280;64046;51.978;5.934;2023-12-22T03:09:40;100049.59;;;11.38;89.03
75359;BME280;64046;51.978;5.934;2023-12-22T03:12:17;100037.31;;;11.38;88.95
75359;BME280;64046;51.978;5.934;2023-12-22T03:14:47;100048.09;;;11.34;89.52
75359;BME280;64046;51.978;5.934;2023-12-22T03:17:18;100066.47;;;11.34;89.61
75359;BME280;64046;51.978;5.934;2023-12-22T03:19:50;100071.69;;;11.34;89.51
75359;BME280;64046;51.978;5.934;2023-12-22T03:22:21;100102.88;;;11.24;89.58
75359;BME280;64046;51.978;5.934;2023-12-22T03:24:57;100167.06;;;11.33;89.12
75359;BME280;64046;51.978;5.934;2023-12-22T03:27:27;100133.06;;;11.01;88.74
75359;BME280;64046;51.978;5.934;2023-12-22T03:29:59;100181.50;;;10.94;87.94
75359;BME280;64046;51.978;5.934;2023-12-22T03:32:30;100196.47;;;10.60;88.40
75359;BME280;64046;51.978;5.934;2023-12-22T03:34:59;100163.69;;;10.36;88.14
75359;BME280;64046;51.978;5.934;2023-12-22T03:37:32;100137.03;;;10.28;88.06
75359;BME280;64046;51.978;5.934;2023-12-22T03:40:17;100143.19;;;10.27;88.02
75359;BME280;64046;51.978;5.934;2023-12-22T03:42:48;100169.06;;;10.00;88.95
75359;BME280;64046;51.978;5.934;2023-12-22T03:45:18;100169.41;;;10.10;88.85
75359;BME280;64046;51.978;5.934;2023-12-22T03:47:51;100173.97;;;10.06;88.79
75359;BME280;64046;51.978;5.934;2023-12-22T03:50:21;100166.38;;;9.84;89.14
75359;BME280;64046;51.978;5.934;2023-12-22T03:52:52;100160.56;;;9.79;89.56
75359;BME280;64046;51.978;5.934;2023-12-22T03:55:26;100163.06;;;9.98;89.25
75359;BME280;64046;51.978;5.934;2023-12-22T03:57:57;100172.25;;;9.89;90.08
75359;BME280;64046;51.978;5.934;2023-12-22T04:00:29;100182.00;;;9.85;90.54
75359;BME280;64046;51.978;5.934;2023-12-22T04:03:01;100188.25;;;9.65;91.75
75359;BME280;64046;51.978;5.934;2023-12-22T04:05:35;100195.09;;;9.85;92.04
75359;BME280;64046;51.978;5.934;2023-12-22T04:08:06;100189.84;;;9.85;92.57
75359;BME280;64046;51.978;5.934;2023-12-22T04:10:41;100167.09;;;9.87;93.04
75359;BME280;64046;51.978;5.934;2023-12-22T04:13:17;100147.00;;;9.88;93.42
75359;BME280;64046;51.978;5.934;2023-12-22T04:15:46;100152.00;;;9.75;93.80
75359;BME280;64046;51.978;5.934;2023-12-22T04:18:19;100151.84;;;9.78;93.75
75359;BME280;64046;51.978;5.934;2023-12-22T04:20:49;100147.25;;;9.83;93.86
75359;BME280;64046;51.978;5.934;2023-12-22T04:23:21;100148.44;;;9.94;93.28
75359;BME280;64046;51.978;5.934;2023-12-22T04:25:55;100158.22;;;10.24;92.63
75359;BME280;64046;51.978;5.934;2023-12-22T04:28:30;100176.47;;;10.25;92.51
75359;BME280;64046;51.978;5.934;2023-12-22T04:31:02;100164.72;;;10.16;92.96
75359;BME280;64046;51.978;5.934;2023-12-22T04:33:33;100161.94;;;10.19;92.83
75359;BME280;64046;51.978;5.934;2023-12-22T04:36:03;100164.50;;;10.37;92.21
75359;BME280;64046;51.978;5.934;2023-12-22T04:38:41;100163.75;;;10.35;92.42
75359;BME280;64046;51.978;5.934;2023-12-22T04:41:13;100143.81;;;10.48;92.19
75359;BME280;64046;51.978;5.934;2023-12-22T04:43:47;100149.94;;;10.49;92.44
75359;BME280;64046;51.978;5.934;2023-12-22T04:46:18;100155.75;;;10.54;92.32
75359;BME280;64046;51.978;5.934;2023-12-22T04:48:47;100157.63;;;10.52;92.27
75359;BME280;64046;51.978;5.934;2023-12-22T04:51:24;100138.25;;;10.70;91.50
75359;BME280;64046;51.978;5.934;2023-12-22T04:53:54;100159.22;;;10.54;91.97
75359;BME280;64046;51.978;5.934;2023-12-22T04:56:29;100159.63;;;10.79;91.32
75359;BME280;64046;51.978;5.934;2023-12-22T04:58:58;100175.16;;;10.66;91.71
75359;BME280;64046;51.978;5.934;2023-12-22T05:01:30;100185.91;;;10.77;91.88
75359;BME280;64046;51.978;5.934;2023-12-22T05:04:02;100192.75;;;10.80;91.59
75359;BME280;64046;51.978;5.934;2023-12-22T05:06:32;100193.78;;;10.77;92.06
75359;BME280;64046;51.978;5.934;2023-12-22T05:09:07;100191.94;;;10.79;92.29
75359;BME280;64046;51.978;5.934;2023-12-22T05:11:40;100190.41;;;10.91;92.19
75359;BME280;64046;51.978;5.934;2023-12-22T05:14:10;100187.25;;;10.84;92.54
75359;BME280;64046;51.978;5.934;2023-12-22T05:16:41;100192.69;;;10.81;92.65
75359;BME280;64046;51.978;5.934;2023-12-22T05:19:11;100192.41;;;10.86;92.91
75359;BME280;64046;51.978;5.934;2023-12-22T05:21:42;100190.75;;;10.85;92.67
75359;BME280;64046;51.978;5.934;2023-12-22T05:24:23;100179.91;;;10.91;92.27
75359;BME280;64046;51.978;5.934;2023-12-22T05:26:56;100184.13;;;11.10;91.81
75359;BME280;64046;51.978;5.934;2023-12-22T05:29:28;100181.41;;;11.11;91.87
75359;BME280;64046;51.978;5.934;2023-12-22T05:31:58;100179.72;;;11.10;92.12
75359;BME280;64046;51.978;5.934;2023-12-22T05:34:28;100176.84;;;10.99;92.09
75359;BME280;64046;51.978;5.934;2023-12-22T05:37:00;100180.91;;;11.20;91.87
75359;BME280;64046;51.978;5.934;2023-12-22T05:39:29;100170.09;;;11.11;91.78
75359;BME280;64046;51.978;5.934;2023-12-22T05:42:06;100161.53;;;11.37;90.84
75359;BME280;64046;51.978;5.934;2023-12-22T05:44:37;100165.22;;;11.19;91.40
75359;BME280;64046;51.978;5.934;2023-12-22T05:47:08;100152.69;;;11.24;91.38
75359;BME280;64046;51.978;5.934;2023-12-22T05:49:43;100162.72;;;11.48;90.54
75359;BME280;64046;51.978;5.934;2023-12-22T05:52:15;100156.59;;;11.47;90.54
75359;BME280;64046;51.978;5.934;2023-12-22T05:54:45;100154.53;;;11.38;90.66
75359;BME280;64046;51.978;5.934;2023-12-22T05:57:19;100143.31;;;11.65;90.00
75359;BME280;64046;51.978;5.934;2023-12-22T05:59:54;100153.47;;;11.71;90.12
75359;BME280;64046;51.978;5.934;2023-12-22T06:02:26;100155.06;;;11.73;90.13
75359;BME280;64046;51.978;5.934;2023-12-22T06:04:59;100145.31;;;11.75;90.04
75359;BME280;64046;51.978;5.934;2023-12-22T06:07:31;100162.84;;;11.60;89.97
75359;BME280;64046;51.978;5.934;2023-12-22T06:10:03;100150.34;;;11.64;89.88
75359;BME280;64046;51.978;5.934;2023-12-22T06:12:40;100146.91;;;11.78;89.26
75359;BME280;64046;51.978;5.934;2023-12-22T06:15:12;100129.97;;;11.84;88.57
75359;BME280;64046;51.978;5.934;2023-12-22T06:17:50;100131.72;;;11.69;88.13
75359;BME280;64046;51.978;5.934;2023-12-22T06:20:20;100142.78;;;11.59;88.80
75359;BME280;64046;51.978;5.934;2023-12-22T06:22:53;100139.03;;;11.64;88.68
75359;BME280;64046;51.978;5.934;2023-12-22T06:25:24;100141.28;;;11.84;88.24
75359;BME280;64046;51.978;5.934;2023-12-22T06:28:04;100147.13;;;11.89;87.89
75359;BME280;64046;51.978;5.934;2023-12-22T06:30:36;100149.84;;;11.88;87.85
75359;BME280;64046;51.978;5.934;2023-12-22T06:33:07;100139.16;;;11.91;87.80
75359;BME280;64046;51.978;5.934;2023-12-22T06:35:37;100128.16;;;11.84;88.11
75359;BME280;64046;51.978;5.934;2023-12-22T06:38:11;100145.81;;;11.82;87.89
75359;BME280;64046;51.978;5.934;2023-12-22T06:40:40;100137.63;;;11.87;87.91
75359;BME280;64046;51.978;5.934;2023-12-22T06:43:17;100136.66;;;12.04;87.81
75359;BME280;64046;51.978;5.934;2023-12-22T06:45:52;100136.94;;;12.14;87.36
75359;BME280;64046;51.978;5.934;2023-12-22T06:48:21;100135.66;;;11.90;88.29
75359;BME280;64046;51.978;5.934;2023-12-22T06:50:55;100130.91;;;12.11;88.16
75359;BME280;64046;51.978;5.934;2023-12-22T06:53:36;100143.59;;;12.19;87.98
75359;BME280;64046;51.978;5.934;2023-12-22T06:56:17;100128.25;;;12.26;87.62
75359;BME280;64046;51.978;5.934;2023-12-22T06:58:55;100118.53;;;12.28;88.18
75359;BME280;64046;51.978;5.934;2023-12-22T07:01:27;100128.47;;;12.23;88.91
75359;BME280;64046;51.978;5.934;2023-12-22T07:04:05;100135.03;;;12.30;88.64
75359;BME280;64046;51.978;5.934;2023-12-22T07:06:34;100134.94;;;12.17;88.94
75359;BME280;64046;51.978;5.934;2023-12-22T07:12:10;100118.78;;;12.23;88.59
75359;BME280;64046;51.978;5.934;2023-12-22T07:14:43;100128.25;;;12.40;88.08
75359;BME280;64046;51.978;5.934;2023-12-22T07:17:14;100130.91;;;12.26;88.41
75359;BME280;64046;51.978;5.934;2023-12-22T07:19:47;100118.19;;;12.47;88.07
75359;BME280;64046;51.978;5.934;2023-12-22T07:22:21;100126.31;;;12.29;88.57
75359;BME280;64046;51.978;5.934;2023-12-22T07:24:53;100130.50;;;12.32;89.00
75359;BME280;64046;51.978;5.934;2023-12-22T07:27:22;100138.75;;;12.40;88.67
75359;BME280;64046;51.978;5.934;2023-12-22T07:29:56;100142.13;;;12.57;88.01
75359;BME280;64046;51.978;5.934;2023-12-22T07:32:25;100142.41;;;12.38;88.65
75359;BME280;64046;51.978;5.934;2023-12-22T07:35:01;100143.97;;;12.55;88.49
75359;BME280;64046;51.978;5.934;2023-12-22T07:37:31;100141.19;;;12.43;88.46
75359;BME280;64046;51.978;5.934;2023-12-22T07:40:01;100146.28;;;12.46;88.52
75359;BME280;64046;51.978;5.934;2023-12-22T07:42:30;100144.28;;;12.50;88.25
75359;BME280;64046;51.978;5.934;2023-12-22T07:45:10;100134.81;;;12.75;87.64
75359;BME280;64046;51.978;5.934;2023-12-22T07:47:43;100143.84;;;12.71;87.99
75359;BME280;64046;51.978;5.934;2023-12-22T07:50:13;100140.31;;;12.57;88.17
75359;BME280;64046;51.978;5.934;2023-12-22T07:52:46;100136.34;;;12.64;88.06
75359;BME280;64046;51.978;5.934;2023-12-22T07:55:17;100137.00;;;12.68;87.84
75359;BME280;64046;51.978;5.934;2023-12-22T07:57:47;100138.06;;;12.66;87.86
75359;BME280;64046;51.978;5.934;2023-12-22T08:00:22;100132.03;;;12.91;87.38
75359;BME280;64046;51.978;5.934;2023-12-22T08:02:55;100131.50;;;12.86;87.56
75359;BME280;64046;51.978;5.934;2023-12-22T08:05:24;100135.03;;;12.72;87.91
75359;BME280;64046;51.978;5.934;2023-12-22T08:07:59;100149.75;;;12.74;87.74
75359;BME280;64046;51.978;5.934;2023-12-22T08:10:32;100149.66;;;12.76;88.07
75359;BME280;64046;51.978;5.934;2023-12-22T08:13:08;100151.34;;;12.77;87.99
75359;BME280;64046;51.978;5.934;2023-12-22T08:15:41;100150.16;;;12.95;87.39
75359;BME280;64046;51.978;5.934;2023-12-22T08:18:11;100149.19;;;12.96;87.68
75359;BME280;64046;51.978;5.934;2023-12-22T08:20:41;100159.88;;;12.80;88.18
75359;BME280;64046;51.978;5.934;2023-12-22T08:23:11;100149.84;;;12.73;88.39
75359;BME280;64046;51.978;5.934;2023-12-22T08:25:41;100145.00;;;12.67;89.38
75359;BME280;64046;51.978;5.934;2023-12-22T08:28:11;100144.53;;;12.60;89.62
75359;BME280;64046;51.978;5.934;2023-12-22T08:30:46;100134.38;;;12.68;89.60
75359;BME280;64046;51.978;5.934;2023-12-22T08:33:17;100143.81;;;12.43;90.36
75359;BME280;64046;51.978;5.934;2023-12-22T08:35:49;100139.28;;;12.60;90.35
75359;BME280;64046;51.978;5.934;2023-12-22T08:38:21;100133.59;;;12.39;90.87
75359;BME280;64046;51.978;5.934;2023-12-22T08:40:54;100127.38;;;12.54;91.14
75359;BME280;64046;51.978;5.934;2023-12-22T08:43:25;100119.72;;;12.37;91.94
75359;BME280;64046;51.978;5.934;2023-12-22T08:45:57;100127.19;;;12.57;92.22
75359;BME280;64046;51.978;5.934;2023-12-22T08:48:29;100116.91;;;12.40;92.94
75359;BME280;64046;51.978;5.934;2023-12-22T08:50:59;100118.59;;;12.41;93.28
75359;BME280;64046;51.978;5.934;2023-12-22T08:53:34;100109.09;;;12.53;94.09
75359;BME280;64046;51.978;5.934;2023-12-22T08:56:05;100118.75;;;12.38;95.47
75359;BME280;64046;51.978;5.934;2023-12-22T08:58:36;100122.16;;;12.40;96.02
75359;BME280;64046;51.978;5.934;2023-12-22T09:01:14;100113.47;;;12.67;95.90
75359;BME280;64046;51.978;5.934;2023-12-22T09:03:44;100101.28;;;12.51;97.14
75359;BME280;64046;51.978;5.934;2023-12-22T09:06:18;100102.09;;;12.66;97.03
75359;BME280;64046;51.978;5.934;2023-12-22T09:08:48;100103.31;;;12.60;97.25
75359;BME280;64046;51.978;5.934;2023-12-22T09:11:19;100096.72;;;12.68;97.69
75359;BME280;64046;51.978;5.934;2023-12-22T09:13:58;100099.06;;;12.72;97.84
75359;BME280;64046;51.978;5.934;2023-12-22T09:16:34;100107.38;;;12.79;97.66
75359;BME280;64046;51.978;5.934;2023-12-22T09:19:03;100096.63;;;12.69;98.15
75359;BME280;64046;51.978;5.934;2023-12-22T09:21:36;100101.44;;;12.62;98.52
75359;BME280;64046;51.978;5.934;2023-12-22T09:24:10;100097.13;;;12.61;98.92
75359;BME280;64046;51.978;5.934;2023-12-22T09:26:46;100093.41;;;12.78;98.86
75359;BME280;64046;51.978;5.934;2023-12-22T09:29:16;100100.38;;;12.65;99.42
75359;BME280;64046;51.978;5.934;2023-12-22T09:31:51;100096.50;;;12.85;99.43
75359;BME280;64046;51.978;5.934;2023-12-22T09:34:20;100095.13;;;12.65;100.00
75359;BME280;64046;51.978;5.934;2023-12-22T09:36:50;100082.34;;;12.73;100.00
75359;BME280;64046;51.978;5.934;2023-12-22T09:39:28;100095.28;;;12.76;100.00
75359;BME280;64046;51.978;5.934;2023-12-22T09:42:00;100086.56;;;12.76;100.00
75359;BME280;64046;51.978;5.934;2023-12-22T09:44:32;100088.28;;;12.90;100.00
75359;BME280;64046;51.978;5.934;2023-12-22T09:47:05;100088.34;;;13.03;100.00
75359;BME280;64046;51.978;5.934;2023-12-22T09:49:38;100098.84;;;13.03;100.00
75359;BME280;64046;51.978;5.934;2023-12-22T09:52:12;100081.94;;;13.07;100.00
75359;BME280;64046;51.978;5.934;2023-12-22T09:54:43;100090.06;;;12.89;100.00
75359;BME280;64046;51.978;5.934;2023-12-22T09:57:16;100079.69;;;13.01;100.00
75359;BME280;64046;51.978;5.934;2023-12-22T09:59:51;100090.16;;;12.88;100.00
75359;BME280;64046;51.978;5.934;2023-12-22T10:02:27;100100.41;;;12.92;100.00
75359;BME280;64046;51.978;5.934;2023-12-22T10:04:59;100086.09;;;12.69;100.00
75359;BME280;64046;51.978;5.934;2023-12-22T10:07:30;100079.72;;;12.73;99.91
75359;BME280;64046;51.978;5.934;2023-12-22T10:10:05;100098.25;;;12.85;99.13
75359;BME280;64046;51.978;5.934;2023-12-22T10:12:38;100082.91;;;12.78;99.16
75359;BME280;64046;51.978;5.934;2023-12-22T10:15:10;100089.19;;;12.76;99.26
75359;BME280;64046;51.978;5.934;2023-12-22T10:17:48;100087.84;;;12.83;98.32
75359;BME280;64046;51.978;5.934;2023-12-22T10:20:20;100085.88;;;12.59;98.99
75359;BME280;64046;51.978;5.934;2023-12-22T10:22:51;100096.56;;;12.56;99.24
75359;BME280;64046;51.978;5.934;2023-12-22T10:25:27;100080.69;;;12.72;98.83
75359;BME280;64046;51.978;5.934;2023-12-22T10:28:08;100094.44;;;12.76;99.26
75359;BME280;64046;51.978;5.934;2023-12-22T10:30:41;100093.56;;;12.62;100.00
75359;BME280;64046;51.978;5.934;2023-12-22T10:33:18;100087.22;;;12.79;100.00
75359;BME280;64046;51.978;5.934;2023-12-22T10:35:48;100078.22;;;12.69;100.00
75359;BME280;64046;51.978;5.934;2023-12-22T10:38:20;100079.50;;;12.76;100.00
75359;BME280;64046;51.978;5.934;2023-12-22T10:40:55;100080.09;;;12.94;100.00
75359;BME280;64046;51.978;5.934;2023-12-22T10:43:38;100080.47;;;13.15;100.00
75359;BME280;64046;51.978;5.934;2023-12-22T10:46:09;100082.53;;;12.97;100.00
75359;BME280;64046;51.978;5.934;2023-12-22T10:48:45;100065.75;;;13.26;100.00
75359;BME280;64046;51.978;5.934;2023-12-22T10:51:15;100078.66;;;13.16;100.00
75359;BME280;64046;51.978;5.934;2023-12-22T10:53:45;100100.53;;;13.16;100.00
75359;BME280;64046;51.978;5.934;2023-12-22T10:56:19;100080.91;;;13.35;100.00
75359;BME280;64046;51.978;5.934;2023-12-22T10:58:51;100077.63;;;13.19;100.00
75359;BME280;64046;51.978;5.934;2023-12-22T11:01:21;100082.13;;;13.29;100.00
75359;BME280;64046;51.978;5.934;2023-12-22T11:04:01;100079.44;;;13.44;100.00
75359;BME280;64046;51.978;5.934;2023-12-22T11:06:34;100072.91;;;13.37;100.00
75359;BME280;64046;51.978;5.934;2023-12-22T11:09:06;100068.31;;;13.40;100.00
75359;BME280;64046;51.978;5.934;2023-12-22T11:11:37;100088.72;;;13.37;100.00
75359;BME280;64046;51.978;5.934;2023-12-22T11:14:07;100071.50;;;13.31;100.00
75359;BME280;64046;51.978;5.934;2023-12-22T11:16:38;100065.31;;;13.32;100.00
75359;BME280;64046;51.978;5.934;2023-12-22T11:19:18;100073.25;;;13.45;100.00
75359;BME280;64046;51.978;5.934;2023-12-22T11:21:50;100070.94;;;13.40;100.00
75359;BME280;64046;51.978;5.934;2023-12-22T11:24:24;100079.25;;;13.47;100.00
75359;BME280;64046;51.978;5.934;2023-12-22T11:26:57;100072.75;;;13.53;100.00
75359;BME280;64046;51.978;5.934;2023-12-22T11:29:32;100068.31;;;13.53;100.00
75359;BME280;64046;51.978;5.934;2023-12-22T11:32:04;100080.31;;;13.57;100.00
75359;BME280;64046;51.978;5.934;2023-12-22T11:34:41;100086.63;;;13.67;100.00
75359;BME280;64046;51.978;5.934;2023-12-22T11:37:13;100072.63;;;13.67;100.00
75359;BME280;64046;51.978;5.934;2023-12-22T11:39:43;100063.38;;;13.61;100.00
75359;BME280;64046;51.978;5.934;2023-12-22T11:42:19;100084.31;;;13.76;100.00
75359;BME280;64046;51.978;5.934;2023-12-22T11:44:53;100081.47;;;13.79;100.00
75359;BME280;64046;51.978;5.934;2023-12-22T11:47:26;100084.41;;;13.87;100.00
75359;BME280;64046;51.978;5.934;2023-12-22T11:50:02;100068.28;;;13.92;100.00
75359;BME280;64046;51.978;5.934;2023-12-22T11:52:33;100065.00;;;13.75;100.00
75359;BME280;64046;51.978;5.934;2023-12-22T11:55:04;100068.72;;;13.86;100.00
75359;BME280;64046;51.978;5.934;2023-12-22T11:57:37;100069.63;;;13.97;100.00
75359;BME280;64046;51.978;5.934;2023-12-22T12:00:09;100054.16;;;13.93;100.00
75359;BME280;64046;51.978;5.934;2023-12-22T12:03:05;100055.41;;;14.00;100.00
75359;BME280;64046;51.978;5.934;2023-12-22T12:05:42;100050.97;;;14.00;100.00
75359;BME280;64046;51.978;5.934;2023-12-22T12:08:21;100059.34;;;13.81;100.00
75359;BME280;64046;51.978;5.934;2023-12-22T12:11:00;100064.38;;;13.84;100.00
75359;BME280;64046;51.978;5.934;2023-12-22T12:13:33;100055.31;;;13.89;100.00
75359;BME280;64046;51.978;5.934;2023-12-22T12:16:06;100048.78;;;13.94;100.00
75359;BME280;64046;51.978;5.934;2023-12-22T12:18:36;100041.84;;;13.80;100.00
75359;BME280;64046;51.978;5.934;2023-12-22T12:21:09;100031.81;;;13.98;100.00
75359;BME280;64046;51.978;5.934;2023-12-22T12:23:45;100030.47;;;13.93;100.00
75359;BME280;64046;51.978;5.934;2023-12-22T12:26:17;100030.00;;;13.99;100.00
75359;BME280;64046;51.978;5.934;2023-12-22T12:28:55;100015.94;;;13.87;100.00
75359;BME280;64046;51.978;5.934;2023-12-22T12:31:36;100015.75;;;14.14;100.00
75359;BME280;64046;51.978;5.934;2023-12-22T12:34:10;100017.97;;;14.08;100.00
75359;BME280;64046;51.978;5.934;2023-12-22T12:36:45;100008.16;;;14.10;100.00
75359;BME280;64046;51.978;5.934;2023-12-22T12:39:18;100010.41;;;14.03;100.00
75359;BME280;64046;51.978;5.934;2023-12-22T12:42:01;100003.00;;;14.08;100.00
75359;BME280;64046;51.978;5.934;2023-12-22T12:44:31;100011.38;;;13.89;100.00
75359;BME280;64046;51.978;5.934;2023-12-22T12:47:11;100000.06;;;14.13;100.00
75359;BME280;64046;51.978;5.934;2023-12-22T12:49:43;99992.22;;;13.87;100.00
75359;BME280;64046;51.978;5.934;2023-12-22T12:52:18;99996.06;;;14.07;100.00
75359;BME280;64046;51.978;5.934;2023-12-22T12:54:48;100011.16;;;13.92;100.00
75359;BME280;64046;51.978;5.934;2023-12-22T12:57:21;100013.25;;;14.00;100.00
75359;BME280;64046;51.978;5.934;2023-12-22T12:59:54;99997.13;;;14.05;100.00
75359;BME280;64046;51.978;5.934;2023-12-22T13:02:25;100012.88;;;14.17;99.53
75359;BME280;64046;51.978;5.934;2023-12-22T13:04:56;99995.44;;;14.04;99.60
75359;BME280;64046;51.978;5.934;2023-12-22T13:07:30;100010.66;;;14.24;98.90
75359;BME280;64046;51.978;5.934;2023-12-22T13:10:01;100004.47;;;14.12;98.96
75359;BME280;64046;51.978;5.934;2023-12-22T13:12:32;100001.88;;;14.24;98.94
75359;BME280;64046;51.978;5.934;2023-12-22T13:15:06;99991.00;;;14.28;98.54
75359;BME280;64046;51.978;5.934;2023-12-22T13:17:37;100010.13;;;14.19;97.57
75359;BME280;64046;51.978;5.934;2023-12-22T13:20:08;100015.94;;;14.24;96.67